createdAt,value
2019-02-05T00:02:51.018Z,14.50
2019-02-05T00:09:35.955Z,16.20
2019-02-05T00:16:33.443Z,15.87
2019-02-05T00:23:30.542Z,15.23
2019-02-05T00:30:27.648Z,14.90
2019-02-05T00:37:12.566Z,14.30
2019-02-05T00:44:17.028Z,15.33
2019-02-05T00:51:02.563Z,16.10
2019-02-05T00:57:47.674Z,16.47
2019-02-05T01:04:52.491Z,16.70
2019-02-05T01:11:54.587Z,18.73
2019-02-05T01:18:39.787Z,16.53
2019-02-05T01:25:24.702Z,17.57
2019-02-05T01:32:09.987Z,17.40
2019-02-05T01:38:55.348Z,15.73
2019-02-05T01:45:40.326Z,16.87
2019-02-05T01:52:25.326Z,17.03
2019-02-05T01:59:10.335Z,18.77
2019-02-05T02:05:55.434Z,18.07
2019-02-05T02:12:40.444Z,21.80
2019-02-05T02:19:25.431Z,20.70
2019-02-05T02:26:10.454Z,20.23
2019-02-05T02:32:56.044Z,20.80
2019-02-05T02:39:40.989Z,18.07
2019-02-05T02:46:25.925Z,18.20
2019-02-05T02:53:10.958Z,17.07
2019-02-05T02:59:55.968Z,16.13
2019-02-05T03:06:41.175Z,16.43
2019-02-05T03:13:26.143Z,17.70
2019-02-05T03:20:23.238Z,17.03
2019-02-05T03:27:21.416Z,16.03
2019-02-05T03:34:06.746Z,17.40
2019-02-05T03:40:58.449Z,18.50
2019-02-05T03:47:43.515Z,18.67
2019-02-05T03:55:07.368Z,18.60
2019-02-05T04:02:16.513Z,17.13
2019-02-05T04:09:13.379Z,16.80
2019-02-05T04:16:16.200Z,17.97
2019-02-05T04:23:06.871Z,17.17
2019-02-05T04:30:09.884Z,18.50
2019-02-05T04:37:15.551Z,18.00
2019-02-05T04:44:09.387Z,17.43
2019-02-05T04:51:16.155Z,18.70
2019-02-05T04:58:06.871Z,19.67
2019-02-05T05:04:54.886Z,18.97
2019-02-05T05:11:51.706Z,19.92
2019-02-05T05:18:49.073Z,18.23
2019-02-05T05:25:34.782Z,18.87
2019-02-05T05:32:20.406Z,19.53
2019-02-05T05:39:07.946Z,19.00
2019-02-05T05:45:52.884Z,20.10
2019-02-05T05:52:37.913Z,19.30
2019-02-05T05:59:23.143Z,22.53
2019-02-05T06:06:20.054Z,24.47
2019-02-05T06:13:17.076Z,20.73
2019-02-05T06:20:14.471Z,21.07
2019-02-05T06:26:59.542Z,20.27
2019-02-05T06:33:44.552Z,19.47
2019-02-05T06:40:33.862Z,19.50
2019-02-05T06:47:38.207Z,21.87
2019-02-05T06:54:41.215Z,19.77
2019-02-05T07:01:26.318Z,21.77
2019-02-05T07:08:11.534Z,21.30
2019-02-05T07:14:56.471Z,20.80
2019-02-05T07:21:43.486Z,20.77
2019-02-05T07:28:28.630Z,19.37
2019-02-05T07:35:14.982Z,18.97
2019-02-05T07:41:59.918Z,18.30
2019-02-05T07:48:57.179Z,19.83
2019-02-05T07:55:54.248Z,20.03
2019-02-05T08:02:39.256Z,15.63
2019-02-05T08:09:24.263Z,18.73
2019-02-05T08:16:09.266Z,18.13
2019-02-05T08:23:13.542Z,16.87
2019-02-05T08:30:30.971Z,17.27
2019-02-05T08:37:15.915Z,16.80
2019-02-05T08:44:00.863Z,17.50
2019-02-05T08:50:46.178Z,16.80
2019-02-05T08:57:31.216Z,18.80
2019-02-05T09:04:16.233Z,17.43
2019-02-05T09:11:13.302Z,18.00
2019-02-05T09:18:10.252Z,18.53
2019-02-05T09:24:59.571Z,17.90
2019-02-05T09:46:40.648Z,18.73
2019-02-05T09:53:37.982Z,18.62
2019-02-05T10:00:35.503Z,19.63
2019-02-05T10:07:20.446Z,19.65
2019-02-05T10:14:05.603Z,20.23
2019-02-05T10:20:50.691Z,19.52
2019-02-05T10:27:35.631Z,18.25
2019-02-05T10:34:20.582Z,20.08
2019-02-05T10:41:06.217Z,18.77
2019-02-05T10:48:03.248Z,18.67
2019-02-05T10:55:00.555Z,19.50
2019-02-05T11:01:45.575Z,18.97
2019-02-05T11:08:30.755Z,17.93
2019-02-05T11:15:36.110Z,16.80
2019-02-05T11:22:22.393Z,13.33
2019-02-05T11:29:07.332Z,11.93
2019-02-05T11:36:04.127Z,10.87
2019-02-05T11:42:49.083Z,11.33
2019-02-05T11:49:34.022Z,12.37
2019-02-05T11:56:19.058Z,12.37
2019-02-05T12:03:05.835Z,10.17
2019-02-05T12:09:51.134Z,10.17
2019-02-05T12:16:36.075Z,9.70
2019-02-05T12:23:21.066Z,9.57
2019-02-05T12:30:13.056Z,9.23
2019-02-05T12:36:58.059Z,10.40
2019-02-05T12:43:43.058Z,8.13
2019-02-05T12:50:30.595Z,9.80
2019-02-05T12:57:15.527Z,10.50
2019-02-05T13:04:00.611Z,10.03
2019-02-05T13:10:48.231Z,8.50
2019-02-05T13:17:33.351Z,10.60
2019-02-05T13:24:18.358Z,11.97
2019-02-05T13:31:08.170Z,12.00
2019-02-05T13:37:52.735Z,10.77
2019-02-05T13:44:40.327Z,8.10
2019-02-05T13:51:25.254Z,10.23
2019-02-05T13:58:11.231Z,8.13
2019-02-05T14:04:56.178Z,10.07
2019-02-05T14:11:41.245Z,10.23
2019-02-05T14:18:26.255Z,10.20
2019-02-05T14:25:13.926Z,11.53
2019-02-05T14:31:59.758Z,10.57
2019-02-05T14:38:44.685Z,11.90
2019-02-05T14:45:29.707Z,11.50
2019-02-05T14:52:15.079Z,9.40
2019-02-05T14:59:00.022Z,10.57
2019-02-05T15:05:45.093Z,9.20
2019-02-05T15:12:30.030Z,9.40
2019-02-05T15:19:14.956Z,8.50
2019-02-05T15:25:59.866Z,7.80
2019-02-05T15:32:52.571Z,7.20
2019-02-05T15:39:37.590Z,6.77
2019-02-05T15:46:22.583Z,7.37
2019-02-05T15:53:07.708Z,6.70
2019-02-05T15:59:53.609Z,6.63
2019-02-05T16:06:38.535Z,7.90
2019-02-05T16:13:24.130Z,8.70
2019-02-05T16:20:15.532Z,9.00
2019-02-05T16:27:00.519Z,9.63
2019-02-05T16:41:51.685Z,9.47
2019-02-05T16:49:43.823Z,8.63
2019-02-05T16:56:28.743Z,9.90
2019-02-05T17:03:15.086Z,10.50
2019-02-05T17:10:00.373Z,11.67
2019-02-05T17:16:58.046Z,10.23
2019-02-05T17:23:42.981Z,10.97
2019-02-05T17:30:47.257Z,11.33
2019-02-05T17:37:32.193Z,11.00
2019-02-05T17:44:17.126Z,10.87
2019-02-05T17:51:15.791Z,12.47
2019-02-05T17:58:00.839Z,12.03
2019-02-05T18:04:45.847Z,10.90
2019-02-05T18:11:30.851Z,13.03
2019-02-05T18:18:28.440Z,13.80
2019-02-05T18:25:16.382Z,14.00
2019-02-05T18:32:21.024Z,12.17
2019-02-05T18:39:30.635Z,13.37
2019-02-05T18:46:21.516Z,14.23
2019-02-05T18:53:07.504Z,14.17
2019-02-05T18:59:52.471Z,14.27
2019-02-05T19:06:37.416Z,15.37
2019-02-05T19:13:23.659Z,13.87
2019-02-05T19:20:12.800Z,14.40
2019-02-05T19:27:11.091Z,12.90
2019-02-05T19:34:07.940Z,13.67
2019-02-05T19:41:05.434Z,13.23
2019-02-05T19:48:03.967Z,13.87
2019-02-05T19:54:48.947Z,13.90
2019-02-05T20:01:35.883Z,14.97
2019-02-05T21:15:09.287Z,21.63
2019-02-05T21:22:09.074Z,23.47
2019-02-05T21:28:57.682Z,21.70
2019-02-05T21:35:42.545Z,22.70
2019-02-05T21:42:27.916Z,24.17
2019-02-05T21:49:19.799Z,22.13
2019-02-05T21:56:05.971Z,21.70
2019-02-05T22:02:50.990Z,23.23
2019-02-05T22:09:36.331Z,22.87
2019-02-05T22:16:40.643Z,22.83
2019-02-05T22:23:58.152Z,22.53
2019-02-05T22:30:55.076Z,22.87
2019-02-05T22:37:40.010Z,23.57
2019-02-05T22:44:44.295Z,24.90
2019-02-05T22:51:34.840Z,25.77
2019-02-05T22:58:19.789Z,24.35
2019-02-05T23:05:07.813Z,26.17
2019-02-05T23:12:31.412Z,25.63
2019-02-05T23:19:16.494Z,27.17
2019-02-05T23:26:01.503Z,27.17
2019-02-05T23:32:46.510Z,26.17
2019-02-05T23:39:31.447Z,25.87
2019-02-05T23:46:16.317Z,24.80
2019-02-05T23:53:01.321Z,24.63
2019-02-05T23:59:46.279Z,24.73
